Parres, Spain
Current Conditions -  °F | °C
As of 6:00 AM on Saturday 29 Nov 2014 (Local Time) from LEAS Reporting Station
Broken Clouds Broken Clouds  
Wind Chill: 52°   Ceiling: 4000
Heat Index: 52°   Visibility: 6mi
Dew Point: 46°   Wind: 3mph
Humidity: 82%   Direction: 240°WSW
Pressure: 29.47"   Gusts: NA
Location:  43.35°N, 5.15°W
Report Text: LEAS 290500Z 24003KT 9999 BKN040 11/08 Q0998 NOSIG
Loading
Personal Weather Stations






























Interactive Weather Map New forecast layout! Learn more

10-Day Weather Forecast

Advertisements
Track Severe Weather on mobile